Aérodrome :
LOGIN :

S'inscrire | Disclaimer

   EN    FR    IT 

 










Légende :    VFR   VFR Marginal   IFR   IFR Intensif   IFR Très Intensif
Visi : 
Plafond : 
>= 8 km
>= 3000ft
5 à 8 km
1000 à 3000 ft
1500m à 5 km
500 à 1000 ft
800 à 1500m
200 à 500 ft
< 800m
< 200 ft
Symboles :   Orages  Brouillard  Fortes neiges  Fortes précipitations  Vent > 20 kt
SIGMETs :   Divers  Orages  Givrage  Turbulence  Onde Orograph.  Cendres Volcan.







- Altitude de l'aérodrome : 0 ft


ETEB - Ansbach Army Heliport

DERNIER METAR :
  • 261256Z AUTO 29007KT 9999 OVC043 06/M03 A3036 RMK AO2 SLP312 T00591030 $

METARs EXPIRÉS :
  • 261156Z AUTO 28009KT 9999 OVC046 06/M02 A3037 RMK AO2 SLP315 70002 T00571019 10065 20010 50002 $
  • 261056Z AUTO 28011KT 9999 SCT038 BKN047 07/M02 A3037 RMK AO2 SLP315 T00651019 $

TAF TAF ETEB
Valide du 26 à 06h jusqu'au 27 à 12h UTC


260605Z 2606/2712 VRB06KT 8000 BR FEW008 OVC035 610359 QNH3033INS
BECMG 2608/2609 30008KT 9999 NSW BKN030 620308 QNH3034INS
BECMG 2613/2614 30012KT 9999 BKN040 620406 QNH3035INS
BECMG 2621/2622 28008KT 9000 -RA OVC020 610208 QNH3039INS
BECMG 2704/2705 VRB06KT 8000 BR OVC015 640159 QNH3040INS
BECMG 2710/2711 VRB06KT 9999 NSW BKN015 610159 QNH3044INS TX08/2614Z TNM01/2702Z
Pas de NOTAMs connus pour ce terrain.



MET'MAP, la Météo Aéronautique d'un coup d'oeil ! - Copyright ORBIFLY Décembre 2007 - Disclaimer

ORBIFLY MET'MAP TEAM :

Programmation & Développement : Alexandra Zaïnal
Conception & Développement : Baudouin d'Aumeries
Co-Programmation & Développement : Marc-Olivier Méhu
Soutien technique & logistique : Manuel Goepfert

Contact : metmap@orbifly.com




SOURCES & CREDITS :

   NOAA